createdAt,value
2022-09-26T00:00:35.988Z,95.91
2022-09-26T00:05:39.012Z,96.17
2022-09-26T00:10:40.813Z,96.31
2022-09-26T00:15:42.581Z,96.34
2022-09-26T00:20:44.384Z,96.21
2022-09-26T00:25:47.745Z,95.94
2022-09-26T00:30:49.936Z,96.02
2022-09-26T00:35:53.356Z,96.15
2022-09-26T00:40:55.591Z,96.09
2022-09-26T00:46:06.447Z,96.06
2022-09-26T00:51:10.000Z,95.95
2022-09-26T00:56:18.975Z,96.05
2022-09-26T01:01:22.618Z,96.21
2022-09-26T01:06:24.379Z,96.10
2022-09-26T01:11:28.253Z,96.29
2022-09-26T01:16:31.900Z,96.21
2022-09-26T01:21:52.206Z,96.18
2022-09-26T01:27:07.841Z,96.53
2022-09-26T01:32:49.567Z,96.23
2022-09-26T01:38:24.718Z,96.26
2022-09-26T01:43:45.757Z,96.28
2022-09-26T01:48:56.155Z,96.22
2022-09-26T01:54:21.804Z,96.43
2022-09-26T01:59:34.434Z,96.48
2022-09-26T02:04:42.854Z,96.27
2022-09-26T02:09:50.955Z,96.47
2022-09-26T02:14:56.733Z,96.53
2022-09-26T02:20:01.497Z,96.45
2022-09-26T02:25:04.960Z,96.54
2022-09-26T02:30:07.983Z,96.73
2022-09-26T02:35:30.010Z,96.81
2022-09-26T02:40:42.307Z,96.65
2022-09-26T02:45:52.274Z,96.90
2022-09-26T02:51:26.834Z,96.87
2022-09-26T02:56:34.818Z,96.95
2022-09-26T03:01:54.242Z,96.91
2022-09-26T03:07:04.370Z,96.73
2022-09-26T03:12:07.862Z,96.73
2022-09-26T03:17:10.205Z,96.71
2022-09-26T03:22:14.382Z,96.60
2022-09-26T03:27:16.954Z,96.66
2022-09-26T03:32:20.304Z,96.85
2022-09-26T03:37:23.334Z,96.64
2022-09-26T03:42:25.661Z,96.81
2022-09-26T03:47:29.475Z,96.74
2022-09-26T03:52:31.694Z,96.73
2022-09-26T03:57:33.384Z,97.76
2022-09-26T04:02:49.302Z,97.82
2022-09-26T04:08:06.783Z,97.96
2022-09-26T04:13:10.553Z,98.17
2022-09-26T04:18:12.160Z,97.81
2022-09-26T04:23:14.312Z,97.92
2022-09-26T04:28:16.265Z,97.98
2022-09-26T04:33:17.834Z,97.86
2022-09-26T04:38:25.127Z,97.57
2022-09-26T04:43:26.731Z,97.32
2022-09-26T04:48:28.635Z,97.48
2022-09-26T04:53:35.962Z,97.08
2022-09-26T04:58:46.820Z,97.13
2022-09-26T05:03:49.537Z,97.37
2022-09-26T05:08:52.186Z,97.31
2022-09-26T05:14:02.722Z,97.15
2022-09-26T05:19:05.188Z,97.44
2022-09-26T05:24:29.196Z,97.52
2022-09-26T05:29:31.006Z,97.45
2022-09-26T05:34:37.238Z,97.51
2022-09-26T05:39:58.948Z,97.53
2022-09-26T05:45:03.394Z,97.50
2022-09-26T05:50:09.970Z,97.51
2022-09-26T05:55:14.012Z,97.54
2022-09-26T06:00:35.618Z,97.47
2022-09-26T06:05:38.080Z,97.43
2022-09-26T06:10:47.085Z,97.60
2022-09-26T06:15:49.588Z,97.74
2022-09-26T06:20:51.329Z,97.48
2022-09-26T06:25:53.175Z,97.32
2022-09-26T06:30:55.521Z,97.50
2022-09-26T06:36:17.084Z,97.66
2022-09-26T06:41:19.781Z,97.67
2022-09-26T06:46:21.753Z,97.50
2022-09-26T06:51:31.899Z,97.76
2022-09-26T06:56:33.558Z,97.72
2022-09-26T07:01:35.334Z,97.57
2022-09-26T07:06:58.370Z,97.71
2022-09-26T07:12:17.174Z,97.66
2022-09-26T07:17:19.118Z,97.87
2022-09-26T07:22:44.766Z,97.15
2022-09-26T07:27:51.975Z,96.62
2022-09-26T07:33:03.165Z,96.64
2022-09-26T07:38:18.847Z,96.56
2022-09-26T07:43:30.783Z,96.24
2022-09-26T07:49:02.518Z,95.69
2022-09-26T07:54:35.207Z,95.53
2022-09-26T07:59:55.339Z,96.20
2022-09-26T08:05:26.323Z,95.21
2022-09-26T08:10:28.121Z,95.95
2022-09-26T08:15:47.978Z,95.54
2022-09-26T08:20:57.792Z,93.90
2022-09-26T08:26:05.089Z,93.32
2022-09-26T08:31:18.163Z,93.68
2022-09-26T08:36:21.538Z,92.70
2022-09-26T08:41:54.700Z,92.67
2022-09-26T08:47:43.870Z,90.90
2022-09-26T08:53:04.233Z,89.82
2022-09-26T08:58:29.052Z,89.19
2022-09-26T09:03:58.223Z,89.81
2022-09-26T09:09:00.024Z,89.12
2022-09-26T09:14:40.642Z,87.84
2022-09-26T09:20:26.271Z,87.14
2022-09-26T09:25:50.665Z,86.57
2022-09-26T09:31:01.131Z,86.23
2022-09-26T09:36:08.470Z,84.72
2022-09-26T09:41:17.352Z,85.09
2022-09-26T09:46:34.742Z,84.75
2022-09-26T09:52:00.961Z,85.19
2022-09-26T09:57:37.584Z,86.09
2022-09-26T10:03:03.607Z,85.98
2022-09-26T10:08:18.394Z,85.89
2022-09-26T10:13:49.656Z,85.81
2022-09-26T10:19:04.187Z,85.42
2022-09-26T10:24:38.745Z,83.63
2022-09-26T10:29:45.338Z,83.57
2022-09-26T10:35:21.257Z,81.05
2022-09-26T10:40:55.343Z,82.22
2022-09-26T10:46:16.536Z,82.21
2022-09-26T10:51:45.475Z,81.79
2022-09-26T10:56:54.272Z,80.25
2022-09-26T11:01:58.961Z,79.80
2022-09-26T11:07:02.107Z,79.45
2022-09-26T11:12:25.430Z,76.39
2022-09-26T11:17:50.525Z,76.72
2022-09-26T11:23:16.246Z,76.48
2022-09-26T11:28:26.874Z,76.61
2022-09-26T11:33:49.616Z,76.12
2022-09-26T11:39:18.532Z,76.95
2022-09-26T11:44:32.150Z,76.16
2022-09-26T11:50:52.333Z,74.03
2022-09-26T11:56:23.129Z,74.72
2022-09-26T12:02:01.960Z,73.79
2022-09-26T12:07:16.344Z,73.29
2022-09-26T12:12:47.248Z,73.32
2022-09-26T12:17:54.007Z,73.71
2022-09-26T12:23:21.330Z,71.88
2022-09-26T12:28:50.552Z,71.81
2022-09-26T12:33:58.259Z,71.00
2022-09-26T12:39:36.429Z,70.65
2022-09-26T12:45:13.542Z,71.57
2022-09-26T12:50:29.626Z,72.24
2022-09-26T12:55:34.156Z,71.07
2022-09-26T13:00:45.709Z,71.06
2022-09-26T13:06:25.582Z,69.81
2022-09-26T13:11:48.179Z,71.20
2022-09-26T13:16:57.547Z,71.82
2022-09-26T13:22:37.782Z,70.68
2022-09-26T13:27:44.151Z,70.98
2022-09-26T13:32:47.557Z,70.75
2022-09-26T13:38:00.666Z,71.01
2022-09-26T13:43:25.972Z,70.64
2022-09-26T13:48:40.045Z,71.04
2022-09-26T13:54:16.692Z,71.27
2022-09-26T13:59:18.180Z,70.94
2022-09-26T14:04:33.405Z,71.32
2022-09-26T14:09:42.154Z,69.84
2022-09-26T14:14:47.373Z,69.90
2022-09-26T14:19:57.181Z,69.47
2022-09-26T14:24:59.841Z,69.59
2022-09-26T14:30:22.610Z,69.17
2022-09-26T14:35:31.549Z,68.56
2022-09-26T14:40:51.916Z,68.17
2022-09-26T14:46:03.062Z,67.59
2022-09-26T14:51:11.212Z,68.45
2022-09-26T14:56:25.584Z,68.19
2022-09-26T15:01:36.470Z,68.12
2022-09-26T15:07:02.468Z,65.44
2022-09-26T15:12:13.062Z,68.58
2022-09-26T15:17:25.712Z,68.48
2022-09-26T15:22:30.890Z,67.54
2022-09-26T15:27:33.281Z,67.58
2022-09-26T15:32:35.005Z,68.23
2022-09-26T15:37:36.938Z,67.93
2022-09-26T15:42:57.549Z,68.35
2022-09-26T15:48:05.296Z,68.93
2022-09-26T15:53:17.605Z,68.82
2022-09-26T15:58:27.449Z,68.96
2022-09-26T16:03:40.087Z,69.34
2022-09-26T16:08:42.483Z,69.73
2022-09-26T16:13:49.560Z,69.92
2022-09-26T16:19:00.990Z,70.96
2022-09-26T16:24:34.257Z,71.15
2022-09-26T16:29:36.344Z,71.23
2022-09-26T16:34:38.071Z,71.76
2022-09-26T16:39:39.795Z,71.86
2022-09-26T16:44:51.603Z,72.65
2022-09-26T16:49:53.312Z,73.20
2022-09-26T16:54:59.718Z,74.12
2022-09-26T17:00:24.273Z,74.51
2022-09-26T17:05:26.251Z,75.09
2022-09-26T17:10:27.972Z,75.33
2022-09-26T17:15:30.891Z,75.75
2022-09-26T17:20:32.604Z,77.03
2022-09-26T17:25:35.096Z,77.01
2022-09-26T17:30:37.183Z,77.89
2022-09-26T17:35:40.923Z,77.96
2022-09-26T17:40:45.623Z,78.20
2022-09-26T17:45:50.805Z,78.04
2022-09-26T17:50:56.537Z,78.75
2022-09-26T17:55:58.544Z,79.03
2022-09-26T18:01:03.581Z,79.28
2022-09-26T18:06:05.941Z,79.06
2022-09-26T18:11:15.214Z,79.51
2022-09-26T18:16:17.278Z,80.25
2022-09-26T18:21:19.548Z,81.05
2022-09-26T18:26:27.893Z,80.89
2022-09-26T18:31:31.621Z,81.30
2022-09-26T18:36:33.704Z,81.62
2022-09-26T18:41:35.499Z,81.49
2022-09-26T18:46:37.934Z,81.88
2022-09-26T18:51:39.814Z,82.35
2022-09-26T18:57:00.557Z,81.72
2022-09-26T19:02:04.221Z,81.66
2022-09-26T19:07:06.914Z,82.09
2022-09-26T19:12:14.349Z,81.91
2022-09-26T19:17:16.008Z,82.44
2022-09-26T19:22:17.785Z,82.62
2022-09-26T19:27:23.581Z,82.64
2022-09-26T19:32:38.641Z,82.59
2022-09-26T19:37:40.584Z,83.02
2022-09-26T19:42:42.505Z,83.02
2022-09-26T19:47:53.063Z,82.83
2022-09-26T19:52:57.491Z,82.84
2022-09-26T19:58:11.832Z,83.32
2022-09-26T20:03:18.910Z,83.49
2022-09-26T20:08:26.431Z,83.66
2022-09-26T20:13:48.356Z,83.65
2022-09-26T20:18:51.615Z,83.89
2022-09-26T20:23:54.309Z,84.11
2022-09-26T20:28:56.801Z,84.53
2022-09-26T20:34:00.129Z,84.43
2022-09-26T20:39:06.489Z,84.27
2022-09-26T20:44:17.892Z,83.84
2022-09-26T20:49:23.609Z,84.00
2022-09-26T20:54:31.844Z,83.96
2022-09-26T20:59:36.009Z,84.69
2022-09-26T21:04:37.794Z,84.33
2022-09-26T21:09:39.770Z,84.58
2022-09-26T21:14:41.473Z,85.01
2022-09-26T21:19:43.473Z,84.77
2022-09-26T21:25:05.585Z,85.08
2022-09-26T21:30:12.902Z,85.06
2022-09-26T21:35:17.626Z,84.94
2022-09-26T21:40:26.332Z,84.74
2022-09-26T21:45:28.222Z,85.38
2022-09-26T21:50:31.135Z,85.46
2022-09-26T21:55:38.757Z,85.72
2022-09-26T22:00:40.924Z,85.94
2022-09-26T22:05:42.905Z,86.24
2022-09-26T22:10:44.599Z,85.88
2022-09-26T22:15:46.260Z,86.53
2022-09-26T22:20:55.088Z,86.65
2022-09-26T22:25:56.912Z,86.69
2022-09-26T22:31:03.076Z,86.42
2022-09-26T22:36:05.252Z,86.92
2022-09-26T22:41:07.826Z,86.99
2022-09-26T22:46:12.429Z,87.17
2022-09-26T22:51:15.692Z,86.97
2022-09-26T22:56:18.078Z,86.79
2022-09-26T23:01:23.658Z,87.02
2022-09-26T23:06:25.943Z,87.33
2022-09-26T23:11:28.072Z,88.04
2022-09-26T23:16:30.492Z,88.35
2022-09-26T23:21:32.169Z,88.41
2022-09-26T23:26:33.858Z,88.08
2022-09-26T23:31:35.720Z,88.15
2022-09-26T23:36:37.674Z,88.22
2022-09-26T23:41:39.463Z,89.54
2022-09-26T23:46:41.271Z,91.64
2022-09-26T23:51:43.357Z,92.61
2022-09-26T23:56:45.543Z,92.38
